sensor_id;sensor_type;location;lat;lon;timestamp;pressure;altitude;pressure_sealevel;temperature
20103;BMP180;10210;52.284;9.892;2022-09-09T00:04:39;99890.00;;;20.20
20103;BMP180;10210;52.284;9.892;2022-09-09T00:07:25;99906.00;;;20.20
20103;BMP180;10210;52.284;9.892;2022-09-09T00:10:17;99898.00;;;20.20
20103;BMP180;10210;52.284;9.892;2022-09-09T00:13:28;99897.00;;;20.10
20103;BMP180;10210;52.284;9.892;2022-09-09T00:16:22;99889.00;;;20.00
20103;BMP180;10210;52.284;9.892;2022-09-09T00:19:27;99897.00;;;20.00
20103;BMP180;10210;52.284;9.892;2022-09-09T00:22:20;99888.00;;;20.00
20103;BMP180;10210;52.284;9.892;2022-09-09T00:25:15;99887.00;;;20.00
20103;BMP180;10210;52.284;9.892;2022-09-09T00:27:49;99891.00;;;20.10
20103;BMP180;10210;52.284;9.892;2022-09-09T00:30:23;99896.00;;;20.10
20103;BMP180;10210;52.284;9.892;2022-09-09T00:32:59;99902.00;;;20.10
20103;BMP180;10210;52.284;9.892;2022-09-09T00:35:40;99891.00;;;20.10
20103;BMP180;10210;52.284;9.892;2022-09-09T00:50:01;99895.00;;;20.00
20103;BMP180;10210;52.284;9.892;2022-09-09T00:56:12;99890.00;;;19.90
20103;BMP180;10210;52.284;9.892;2022-09-09T00:58:38;99888.00;;;19.90
20103;BMP180;10210;52.284;9.892;2022-09-09T01:01:10;99889.00;;;19.90
20103;BMP180;10210;52.284;9.892;2022-09-09T01:03:54;99905.00;;;19.90
20103;BMP180;10210;52.284;9.892;2022-09-09T01:06:33;99902.00;;;19.90
20103;BMP180;10210;52.284;9.892;2022-09-09T01:09:24;99901.00;;;19.80
20103;BMP180;10210;52.284;9.892;2022-09-09T01:14:47;99890.00;;;19.80
20103;BMP180;10210;52.284;9.892;2022-09-09T01:17:25;99899.00;;;19.80
20103;BMP180;10210;52.284;9.892;2022-09-09T01:20:12;99904.00;;;19.80
20103;BMP180;10210;52.284;9.892;2022-09-09T01:26:17;99892.00;;;19.70
20103;BMP180;10210;52.284;9.892;2022-09-09T01:28:51;99892.00;;;19.70
20103;BMP180;10210;52.284;9.892;2022-09-09T01:31:39;99896.00;;;19.70
20103;BMP180;10210;52.284;9.892;2022-09-09T01:34:14;99883.00;;;19.60
20103;BMP180;10210;52.284;9.892;2022-09-09T01:36:59;99880.00;;;19.60
20103;BMP180;10210;52.284;9.892;2022-09-09T01:39:26;99879.00;;;19.60
20103;BMP180;10210;52.284;9.892;2022-09-09T01:41:54;99877.00;;;19.60
20103;BMP180;10210;52.284;9.892;2022-09-09T01:44:22;99875.00;;;19.60
20103;BMP180;10210;52.284;9.892;2022-09-09T01:46:48;99870.00;;;19.60
20103;BMP180;10210;52.284;9.892;2022-09-09T01:49:15;99872.00;;;19.60
20103;BMP180;10210;52.284;9.892;2022-09-09T01:51:43;99871.00;;;19.60
20103;BMP180;10210;52.284;9.892;2022-09-09T01:54:11;99877.00;;;19.60
20103;BMP180;10210;52.284;9.892;2022-09-09T02:02:32;99905.00;;;19.60
20103;BMP180;10210;52.284;9.892;2022-09-09T02:08:46;99897.00;;;19.50
20103;BMP180;10210;52.284;9.892;2022-09-09T02:11:17;99892.00;;;19.60
20103;BMP180;10210;52.284;9.892;2022-09-09T02:13:46;99899.00;;;19.60
20103;BMP180;10210;52.284;9.892;2022-09-09T02:16:33;99888.00;;;19.60
20103;BMP180;10210;52.284;9.892;2022-09-09T02:19:23;99890.00;;;19.50
20103;BMP180;10210;52.284;9.892;2022-09-09T02:21:55;99898.00;;;19.60
20103;BMP180;10210;52.284;9.892;2022-09-09T02:24:22;99888.00;;;19.60
20103;BMP180;10210;52.284;9.892;2022-09-09T02:26:53;99882.00;;;19.60
20103;BMP180;10210;52.284;9.892;2022-09-09T02:29:39;99887.00;;;19.60
20103;BMP180;10210;52.284;9.892;2022-09-09T02:32:11;99891.00;;;19.60
20103;BMP180;10210;52.284;9.892;2022-09-09T02:35:09;99890.00;;;19.50
20103;BMP180;10210;52.284;9.892;2022-09-09T02:37:39;99880.00;;;19.60
20103;BMP180;10210;52.284;9.892;2022-09-09T02:40:09;99884.00;;;19.60
20103;BMP180;10210;52.284;9.892;2022-09-09T02:42:44;99876.00;;;19.60
20103;BMP180;10210;52.284;9.892;2022-09-09T02:45:14;99873.00;;;19.60
20103;BMP180;10210;52.284;9.892;2022-09-09T02:50:55;99873.00;;;19.60
20103;BMP180;10210;52.284;9.892;2022-09-09T02:53:48;99880.00;;;19.60
20103;BMP180;10210;52.284;9.892;2022-09-09T02:56:21;99876.00;;;19.60
20103;BMP180;10210;52.284;9.892;2022-09-09T02:58:49;99881.00;;;19.70
20103;BMP180;10210;52.284;9.892;2022-09-09T03:01:17;99870.00;;;19.70
20103;BMP180;10210;52.284;9.892;2022-09-09T03:03:43;99876.00;;;19.70
20103;BMP180;10210;52.284;9.892;2022-09-09T03:06:10;99868.00;;;19.70
20103;BMP180;10210;52.284;9.892;2022-09-09T03:08:37;99868.00;;;19.60
20103;BMP180;10210;52.284;9.892;2022-09-09T03:11:03;99879.00;;;19.70
20103;BMP180;10210;52.284;9.892;2022-09-09T03:13:29;99880.00;;;19.60
20103;BMP180;10210;52.284;9.892;2022-09-09T03:15:55;99884.00;;;19.60
20103;BMP180;10210;52.284;9.892;2022-09-09T03:18:21;99883.00;;;19.60
20103;BMP180;10210;52.284;9.892;2022-09-09T03:20:47;99880.00;;;19.60
20103;BMP180;10210;52.284;9.892;2022-09-09T03:23:16;99886.00;;;19.60
20103;BMP180;10210;52.284;9.892;2022-09-09T03:25:49;99877.00;;;19.60
20103;BMP180;10210;52.284;9.892;2022-09-09T03:28:15;99881.00;;;19.60
20103;BMP180;10210;52.284;9.892;2022-09-09T03:30:41;99880.00;;;19.60
20103;BMP180;10210;52.284;9.892;2022-09-09T03:33:07;99884.00;;;19.60
20103;BMP180;10210;52.284;9.892;2022-09-09T03:35:33;99885.00;;;19.60
20103;BMP180;10210;52.284;9.892;2022-09-09T03:37:58;99886.00;;;19.60
20103;BMP180;10210;52.284;9.892;2022-09-09T03:40:26;99887.00;;;19.60
20103;BMP180;10210;52.284;9.892;2022-09-09T03:42:51;99875.00;;;19.70
20103;BMP180;10210;52.284;9.892;2022-09-09T03:45:17;99887.00;;;19.70
20103;BMP180;10210;52.284;9.892;2022-09-09T03:47:43;99883.00;;;19.70
20103;BMP180;10210;52.284;9.892;2022-09-09T03:50:10;99881.00;;;19.80
20103;BMP180;10210;52.284;9.892;2022-09-09T03:52:41;99884.00;;;19.80
20103;BMP180;10210;52.284;9.892;2022-09-09T03:55:08;99879.00;;;19.90
20103;BMP180;10210;52.284;9.892;2022-09-09T03:57:34;99879.00;;;19.90
20103;BMP180;10210;52.284;9.892;2022-09-09T04:00:07;99879.00;;;19.90
20103;BMP180;10210;52.284;9.892;2022-09-09T04:02:33;99872.00;;;19.90
20103;BMP180;10210;52.284;9.892;2022-09-09T04:04:59;99878.00;;;20.00
20103;BMP180;10210;52.284;9.892;2022-09-09T04:07:25;99880.00;;;20.00
20103;BMP180;10210;52.284;9.892;2022-09-09T04:09:52;99876.00;;;20.00
20103;BMP180;10210;52.284;9.892;2022-09-09T04:12:19;99887.00;;;20.00
20103;BMP180;10210;52.284;9.892;2022-09-09T04:14:46;99885.00;;;20.00
20103;BMP180;10210;52.284;9.892;2022-09-09T04:17:12;99882.00;;;20.00
20103;BMP180;10210;52.284;9.892;2022-09-09T04:19:37;99892.00;;;20.00
20103;BMP180;10210;52.284;9.892;2022-09-09T04:22:03;99888.00;;;20.00
20103;BMP180;10210;52.284;9.892;2022-09-09T04:24:29;99889.00;;;20.00
20103;BMP180;10210;52.284;9.892;2022-09-09T04:26:55;99891.00;;;20.00
20103;BMP180;10210;52.284;9.892;2022-09-09T04:29:21;99899.00;;;20.00
20103;BMP180;10210;52.284;9.892;2022-09-09T04:31:46;99891.00;;;20.00
20103;BMP180;10210;52.284;9.892;2022-09-09T04:34:12;99894.00;;;20.00
20103;BMP180;10210;52.284;9.892;2022-09-09T04:36:37;99893.00;;;20.00
20103;BMP180;10210;52.284;9.892;2022-09-09T04:39:07;99891.00;;;20.10
20103;BMP180;10210;52.284;9.892;2022-09-09T04:41:32;99889.00;;;20.10
20103;BMP180;10210;52.284;9.892;2022-09-09T04:43:58;99891.00;;;20.00
20103;BMP180;10210;52.284;9.892;2022-09-09T04:46:25;99899.00;;;20.00
20103;BMP180;10210;52.284;9.892;2022-09-09T04:48:51;99898.00;;;20.10
20103;BMP180;10210;52.284;9.892;2022-09-09T04:51:18;99896.00;;;20.10
20103;BMP180;10210;52.284;9.892;2022-09-09T04:53:43;99904.00;;;20.10
20103;BMP180;10210;52.284;9.892;2022-09-09T04:56:14;99914.00;;;20.10
20103;BMP180;10210;52.284;9.892;2022-09-09T04:58:41;99911.00;;;20.10
20103;BMP180;10210;52.284;9.892;2022-09-09T05:01:15;99907.00;;;20.10
20103;BMP180;10210;52.284;9.892;2022-09-09T05:03:41;99913.00;;;20.20
20103;BMP180;10210;52.284;9.892;2022-09-09T05:06:10;99900.00;;;20.20
20103;BMP180;10210;52.284;9.892;2022-09-09T05:08:42;99912.00;;;20.20
20103;BMP180;10210;52.284;9.892;2022-09-09T05:11:20;99911.00;;;20.20
20103;BMP180;10210;52.284;9.892;2022-09-09T05:13:49;99915.00;;;20.20
20103;BMP180;10210;52.284;9.892;2022-09-09T05:16:16;99912.00;;;20.20
20103;BMP180;10210;52.284;9.892;2022-09-09T05:18:43;99911.00;;;20.20
20103;BMP180;10210;52.284;9.892;2022-09-09T05:21:10;99909.00;;;20.10
20103;BMP180;10210;52.284;9.892;2022-09-09T05:23:37;99903.00;;;20.10
20103;BMP180;10210;52.284;9.892;2022-09-09T05:26:04;99909.00;;;20.00
20103;BMP180;10210;52.284;9.892;2022-09-09T05:28:30;99906.00;;;20.00
20103;BMP180;10210;52.284;9.892;2022-09-09T05:31:07;99906.00;;;19.90
20103;BMP180;10210;52.284;9.892;2022-09-09T05:33:35;99908.00;;;19.90
20103;BMP180;10210;52.284;9.892;2022-09-09T05:36:08;99910.00;;;19.90
20103;BMP180;10210;52.284;9.892;2022-09-09T05:38:35;99917.00;;;19.90
20103;BMP180;10210;52.284;9.892;2022-09-09T05:41:02;99920.00;;;19.90
20103;BMP180;10210;52.284;9.892;2022-09-09T05:43:29;99916.00;;;19.90
20103;BMP180;10210;52.284;9.892;2022-09-09T05:46:07;99927.00;;;19.90
20103;BMP180;10210;52.284;9.892;2022-09-09T05:48:39;99915.00;;;19.90
20103;BMP180;10210;52.284;9.892;2022-09-09T05:51:09;99915.00;;;19.90
20103;BMP180;10210;52.284;9.892;2022-09-09T05:53:36;99913.00;;;19.90
20103;BMP180;10210;52.284;9.892;2022-09-09T05:56:16;99916.00;;;19.90
20103;BMP180;10210;52.284;9.892;2022-09-09T05:58:47;99909.00;;;19.90
20103;BMP180;10210;52.284;9.892;2022-09-09T06:01:19;99924.00;;;19.90
20103;BMP180;10210;52.284;9.892;2022-09-09T06:03:47;99915.00;;;19.90
20103;BMP180;10210;52.284;9.892;2022-09-09T06:06:23;99932.00;;;20.00
20103;BMP180;10210;52.284;9.892;2022-09-09T06:08:55;99937.00;;;20.00
20103;BMP180;10210;52.284;9.892;2022-09-09T06:11:29;99933.00;;;20.00
20103;BMP180;10210;52.284;9.892;2022-09-09T06:13:57;99947.00;;;20.10
20103;BMP180;10210;52.284;9.892;2022-09-09T06:16:25;99944.00;;;20.20
20103;BMP180;10210;52.284;9.892;2022-09-09T06:18:53;99943.00;;;20.20
20103;BMP180;10210;52.284;9.892;2022-09-09T06:21:26;99947.00;;;20.30
20103;BMP180;10210;52.284;9.892;2022-09-09T06:23:52;99936.00;;;20.30
20103;BMP180;10210;52.284;9.892;2022-09-09T06:26:31;99939.00;;;20.30
20103;BMP180;10210;52.284;9.892;2022-09-09T06:28:58;99936.00;;;20.40
20103;BMP180;10210;52.284;9.892;2022-09-09T06:31:26;99937.00;;;20.40
20103;BMP180;10210;52.284;9.892;2022-09-09T06:33:57;99932.00;;;20.50
20103;BMP180;10210;52.284;9.892;2022-09-09T06:36:32;99933.00;;;20.50
20103;BMP180;10210;52.284;9.892;2022-09-09T06:38:59;99934.00;;;20.60
20103;BMP180;10210;52.284;9.892;2022-09-09T06:41:28;99923.00;;;20.60
20103;BMP180;10210;52.284;9.892;2022-09-09T06:43:55;99929.00;;;20.70
20103;BMP180;10210;52.284;9.892;2022-09-09T06:46:27;99928.00;;;20.80
20103;BMP180;10210;52.284;9.892;2022-09-09T06:48:54;99924.00;;;20.80
20103;BMP180;10210;52.284;9.892;2022-09-09T06:51:29;99916.00;;;20.90
20103;BMP180;10210;52.284;9.892;2022-09-09T06:53:58;99922.00;;;20.90
20103;BMP180;10210;52.284;9.892;2022-09-09T06:56:38;99928.00;;;21.00
20103;BMP180;10210;52.284;9.892;2022-09-09T06:59:08;99915.00;;;21.10
20103;BMP180;10210;52.284;9.892;2022-09-09T07:01:42;99915.00;;;21.20
20103;BMP180;10210;52.284;9.892;2022-09-09T07:04:16;99919.00;;;21.30
20103;BMP180;10210;52.284;9.892;2022-09-09T07:06:45;99915.00;;;21.30
20103;BMP180;10210;52.284;9.892;2022-09-09T07:09:14;99920.00;;;21.40
20103;BMP180;10210;52.284;9.892;2022-09-09T07:11:47;99918.00;;;21.50
20103;BMP180;10210;52.284;9.892;2022-09-09T07:14:14;99916.00;;;21.50
20103;BMP180;10210;52.284;9.892;2022-09-09T07:16:44;99920.00;;;21.60
20103;BMP180;10210;52.284;9.892;2022-09-09T07:19:11;99918.00;;;21.60
20103;BMP180;10210;52.284;9.892;2022-09-09T07:21:38;99923.00;;;21.70
20103;BMP180;10210;52.284;9.892;2022-09-09T07:24:07;99930.00;;;21.70
20103;BMP180;10210;52.284;9.892;2022-09-09T07:26:36;99940.00;;;21.80
20103;BMP180;10210;52.284;9.892;2022-09-09T07:29:02;99931.00;;;21.90
20103;BMP180;10210;52.284;9.892;2022-09-09T07:31:34;99937.00;;;22.10
20103;BMP180;10210;52.284;9.892;2022-09-09T07:34:03;99944.00;;;22.70
20103;BMP180;10210;52.284;9.892;2022-09-09T07:36:35;99941.00;;;23.10
20103;BMP180;10210;52.284;9.892;2022-09-09T07:39:07;99944.00;;;23.60
20103;BMP180;10210;52.284;9.892;2022-09-09T07:41:44;99939.00;;;24.20
20103;BMP180;10210;52.284;9.892;2022-09-09T07:44:17;99938.00;;;24.80
20103;BMP180;10210;52.284;9.892;2022-09-09T07:46:44;99936.00;;;25.30
20103;BMP180;10210;52.284;9.892;2022-09-09T07:49:11;99943.00;;;25.80
20103;BMP180;10210;52.284;9.892;2022-09-09T07:51:46;99944.00;;;26.40
20103;BMP180;10210;52.284;9.892;2022-09-09T07:54:16;99953.00;;;26.80
20103;BMP180;10210;52.284;9.892;2022-09-09T07:56:46;99958.00;;;27.30
20103;BMP180;10210;52.284;9.892;2022-09-09T07:59:12;99954.00;;;27.70
20103;BMP180;10210;52.284;9.892;2022-09-09T08:01:52;99966.00;;;28.00
20103;BMP180;10210;52.284;9.892;2022-09-09T08:04:23;99954.00;;;28.10
20103;BMP180;10210;52.284;9.892;2022-09-09T08:06:53;99959.00;;;28.10
20103;BMP180;10210;52.284;9.892;2022-09-09T08:09:20;99960.00;;;28.10
20103;BMP180;10210;52.284;9.892;2022-09-09T08:11:46;99965.00;;;28.00
20103;BMP180;10210;52.284;9.892;2022-09-09T08:14:13;99965.00;;;28.00
20103;BMP180;10210;52.284;9.892;2022-09-09T08:16:43;99960.00;;;28.10
20103;BMP180;10210;52.284;9.892;2022-09-09T08:19:09;99968.00;;;28.20
20103;BMP180;10210;52.284;9.892;2022-09-09T08:21:38;99971.00;;;28.20
20103;BMP180;10210;52.284;9.892;2022-09-09T08:24:08;99973.00;;;28.00
20103;BMP180;10210;52.284;9.892;2022-09-09T08:26:40;99976.00;;;27.80
20103;BMP180;10210;52.284;9.892;2022-09-09T08:29:09;99977.00;;;27.60
20103;BMP180;10210;52.284;9.892;2022-09-09T08:31:44;99968.00;;;27.30
20103;BMP180;10210;52.284;9.892;2022-09-09T08:34:10;99969.00;;;27.00
20103;BMP180;10210;52.284;9.892;2022-09-09T08:36:44;99972.00;;;26.70
20103;BMP180;10210;52.284;9.892;2022-09-09T08:39:13;99969.00;;;26.50
20103;BMP180;10210;52.284;9.892;2022-09-09T08:42:01;99968.00;;;26.50
20103;BMP180;10210;52.284;9.892;2022-09-09T08:50:26;99977.00;;;27.20
20103;BMP180;10210;52.284;9.892;2022-09-09T08:53:24;99981.00;;;27.60
20103;BMP180;10210;52.284;9.892;2022-09-09T08:56:09;99996.00;;;27.90
20103;BMP180;10210;52.284;9.892;2022-09-09T08:58:47;99989.00;;;27.90
20103;BMP180;10210;52.284;9.892;2022-09-09T09:01:49;99984.00;;;27.80
20103;BMP180;10210;52.284;9.892;2022-09-09T09:04:38;99996.00;;;27.80
20103;BMP180;10210;52.284;9.892;2022-09-09T09:10:35;99990.00;;;27.60
20103;BMP180;10210;52.284;9.892;2022-09-09T09:13:17;99986.00;;;27.60
20103;BMP180;10210;52.284;9.892;2022-09-09T09:15:48;99995.00;;;27.70
20103;BMP180;10210;52.284;9.892;2022-09-09T09:18:17;99996.00;;;27.70
20103;BMP180;10210;52.284;9.892;2022-09-09T09:20:53;100002.00;;;27.60
20103;BMP180;10210;52.284;9.892;2022-09-09T09:23:25;99987.00;;;27.50
20103;BMP180;10210;52.284;9.892;2022-09-09T09:25:59;99999.00;;;27.40
20103;BMP180;10210;52.284;9.892;2022-09-09T09:28:31;99993.00;;;27.30
20103;BMP180;10210;52.284;9.892;2022-09-09T09:31:08;99992.00;;;27.10
20103;BMP180;10210;52.284;9.892;2022-09-09T09:36:09;99992.00;;;26.80
20103;BMP180;10210;52.284;9.892;2022-09-09T09:38:36;99999.00;;;26.60
20103;BMP180;10210;52.284;9.892;2022-09-09T09:41:03;99996.00;;;26.50
20103;BMP180;10210;52.284;9.892;2022-09-09T09:43:37;99997.00;;;26.30
20103;BMP180;10210;52.284;9.892;2022-09-09T09:46:19;99992.00;;;26.20
20103;BMP180;10210;52.284;9.892;2022-09-09T09:48:45;99987.00;;;26.10
20103;BMP180;10210;52.284;9.892;2022-09-09T09:51:23;99983.00;;;26.10
20103;BMP180;10210;52.284;9.892;2022-09-09T09:53:49;99988.00;;;26.00
20103;BMP180;10210;52.284;9.892;2022-09-09T09:56:27;99988.00;;;26.00
20103;BMP180;10210;52.284;9.892;2022-09-09T09:58:57;99985.00;;;26.00
20103;BMP180;10210;52.284;9.892;2022-09-09T10:01:32;99983.00;;;25.90
20103;BMP180;10210;52.284;9.892;2022-09-09T10:04:13;99976.00;;;25.90
20103;BMP180;10210;52.284;9.892;2022-09-09T10:06:40;99978.00;;;25.90
20103;BMP180;10210;52.284;9.892;2022-09-09T10:09:27;99979.00;;;25.90
20103;BMP180;10210;52.284;9.892;2022-09-09T10:15:25;99973.00;;;26.10
20103;BMP180;10210;52.284;9.892;2022-09-09T10:21:18;99966.00;;;26.10
20103;BMP180;10210;52.284;9.892;2022-09-09T10:24:28;99968.00;;;26.20
20103;BMP180;10210;52.284;9.892;2022-09-09T10:27:24;99967.00;;;26.30
20103;BMP180;10210;52.284;9.892;2022-09-09T10:30:11;99969.00;;;26.50
20103;BMP180;10210;52.284;9.892;2022-09-09T10:32:48;99969.00;;;26.60
20103;BMP180;10210;52.284;9.892;2022-09-09T10:35:43;99967.00;;;26.60
20103;BMP180;10210;52.284;9.892;2022-09-09T10:38:18;99976.00;;;26.60
20103;BMP180;10210;52.284;9.892;2022-09-09T10:46:48;99981.00;;;26.30
20103;BMP180;10210;52.284;9.892;2022-09-09T10:55:11;99968.00;;;25.80
20103;BMP180;10210;52.284;9.892;2022-09-09T10:57:50;99963.00;;;25.70
20103;BMP180;10210;52.284;9.892;2022-09-09T11:02:58;99949.00;;;25.50
20103;BMP180;10210;52.284;9.892;2022-09-09T11:05:43;99940.00;;;25.50
20103;BMP180;10210;52.284;9.892;2022-09-09T11:08:34;99948.00;;;25.60
20103;BMP180;10210;52.284;9.892;2022-09-09T11:11:21;99955.00;;;25.60
20103;BMP180;10210;52.284;9.892;2022-09-09T11:14:17;99952.00;;;25.60
20103;BMP180;10210;52.284;9.892;2022-09-09T11:16:53;99962.00;;;25.70
20103;BMP180;10210;52.284;9.892;2022-09-09T11:19:40;99948.00;;;25.70
20103;BMP180;10210;52.284;9.892;2022-09-09T11:22:15;99948.00;;;25.80
20103;BMP180;10210;52.284;9.892;2022-09-09T11:24:59;99956.00;;;25.80
20103;BMP180;10210;52.284;9.892;2022-09-09T11:30:22;99970.00;;;25.80
20103;BMP180;10210;52.284;9.892;2022-09-09T11:36:22;100000.00;;;25.50
20103;BMP180;10210;52.284;9.892;2022-09-09T11:39:25;99999.00;;;25.40
20103;BMP180;10210;52.284;9.892;2022-09-09T11:41:53;99995.00;;;25.40
20103;BMP180;10210;52.284;9.892;2022-09-09T11:44:34;99991.00;;;25.20
20103;BMP180;10210;52.284;9.892;2022-09-09T11:46:59;99995.00;;;25.10
20103;BMP180;10210;52.284;9.892;2022-09-09T11:49:30;99994.00;;;25.00
20103;BMP180;10210;52.284;9.892;2022-09-09T11:52:24;99985.00;;;24.80
20103;BMP180;10210;52.284;9.892;2022-09-09T11:54:54;99980.00;;;24.80
20103;BMP180;10210;52.284;9.892;2022-09-09T11:57:35;99992.00;;;24.60
20103;BMP180;10210;52.284;9.892;2022-09-09T12:00:03;99978.00;;;24.60
20103;BMP180;10210;52.284;9.892;2022-09-09T12:02:29;99973.00;;;24.50
20103;BMP180;10210;52.284;9.892;2022-09-09T12:05:07;99973.00;;;24.40
20103;BMP180;10210;52.284;9.892;2022-09-09T12:07:55;99969.00;;;24.30
20103;BMP180;10210;52.284;9.892;2022-09-09T12:10:32;99977.00;;;24.30
20103;BMP180;10210;52.284;9.892;2022-09-09T12:13:19;99972.00;;;24.30
20103;BMP180;10210;52.284;9.892;2022-09-09T12:15:52;99972.00;;;24.30
20103;BMP180;10210;52.284;9.892;2022-09-09T12:18:32;99967.00;;;24.30
20103;BMP180;10210;52.284;9.892;2022-09-09T12:21:48;99960.00;;;24.30
20103;BMP180;10210;52.284;9.892;2022-09-09T12:24:49;99966.00;;;24.40
20103;BMP180;10210;52.284;9.892;2022-09-09T12:27:28;99968.00;;;24.50
20103;BMP180;10210;52.284;9.892;2022-09-09T12:30:10;99965.00;;;24.60
20103;BMP180;10210;52.284;9.892;2022-09-09T12:32:37;99964.00;;;24.70
20103;BMP180;10210;52.284;9.892;2022-09-09T12:35:25;99977.00;;;24.70
20103;BMP180;10210;52.284;9.892;2022-09-09T12:38:01;99983.00;;;24.80
20103;BMP180;10210;52.284;9.892;2022-09-09T12:40:33;99972.00;;;24.80
20103;BMP180;10210;52.284;9.892;2022-09-09T12:43:16;99968.00;;;24.90
20103;BMP180;10210;52.284;9.892;2022-09-09T12:45:42;99969.00;;;25.00
20103;BMP180;10210;52.284;9.892;2022-09-09T12:48:10;99971.00;;;25.00
20103;BMP180;10210;52.284;9.892;2022-09-09T12:50:45;99976.00;;;25.00
20103;BMP180;10210;52.284;9.892;2022-09-09T12:53:30;99979.00;;;25.00
20103;BMP180;10210;52.284;9.892;2022-09-09T12:56:04;99979.00;;;25.10
20103;BMP180;10210;52.284;9.892;2022-09-09T12:58:33;99985.00;;;25.10
20103;BMP180;10210;52.284;9.892;2022-09-09T13:01:02;99981.00;;;25.10
20103;BMP180;10210;52.284;9.892;2022-09-09T13:03:32;99977.00;;;25.10
20103;BMP180;10210;52.284;9.892;2022-09-09T13:06:11;99975.00;;;25.10
20103;BMP180;10210;52.284;9.892;2022-09-09T13:08:37;99984.00;;;25.10
20103;BMP180;10210;52.284;9.892;2022-09-09T13:11:12;99975.00;;;25.10
20103;BMP180;10210;52.284;9.892;2022-09-09T13:13:41;99978.00;;;25.10
20103;BMP180;10210;52.284;9.892;2022-09-09T13:16:25;99975.00;;;25.00
20103;BMP180;10210;52.284;9.892;2022-09-09T13:18:52;99968.00;;;25.10
20103;BMP180;10210;52.284;9.892;2022-09-09T13:21:19;99967.00;;;25.10
20103;BMP180;10210;52.284;9.892;2022-09-09T13:23:50;99967.00;;;25.10
20103;BMP180;10210;52.284;9.892;2022-09-09T13:26:26;99967.00;;;25.00
20103;BMP180;10210;52.284;9.892;2022-09-09T13:28:53;99968.00;;;25.00
20103;BMP180;10210;52.284;9.892;2022-09-09T13:31:29;99961.00;;;25.00
20103;BMP180;10210;52.284;9.892;2022-09-09T13:33:55;99961.00;;;25.00
20103;BMP180;10210;52.284;9.892;2022-09-09T13:36:34;99952.00;;;25.00
20103;BMP180;10210;52.284;9.892;2022-09-09T13:39:03;99945.00;;;25.00
20103;BMP180;10210;52.284;9.892;2022-09-09T13:41:43;99934.00;;;25.00
20103;BMP180;10210;52.284;9.892;2022-09-09T13:44:40;99932.00;;;25.00
20103;BMP180;10210;52.284;9.892;2022-09-09T13:47:19;99933.00;;;25.10
20103;BMP180;10210;52.284;9.892;2022-09-09T13:49:46;99936.00;;;25.20
20103;BMP180;10210;52.284;9.892;2022-09-09T13:52:15;99943.00;;;25.20
20103;BMP180;10210;52.284;9.892;2022-09-09T13:54:47;99932.00;;;25.30
20103;BMP180;10210;52.284;9.892;2022-09-09T13:57:22;99935.00;;;25.40
20103;BMP180;10210;52.284;9.892;2022-09-09T13:59:49;99941.00;;;25.50
20103;BMP180;10210;52.284;9.892;2022-09-09T14:02:16;99936.00;;;25.70
20103;BMP180;10210;52.284;9.892;2022-09-09T14:04:44;99933.00;;;25.80
20103;BMP180;10210;52.284;9.892;2022-09-09T14:07:16;99937.00;;;25.80
20103;BMP180;10210;52.284;9.892;2022-09-09T14:09:43;99925.00;;;25.90
20103;BMP180;10210;52.284;9.892;2022-09-09T14:12:11;99924.00;;;26.00
20103;BMP180;10210;52.284;9.892;2022-09-09T14:14:37;99932.00;;;26.10
20103;BMP180;10210;52.284;9.892;2022-09-09T14:17:04;99919.00;;;26.20
20103;BMP180;10210;52.284;9.892;2022-09-09T14:19:30;99916.00;;;26.30
20103;BMP180;10210;52.284;9.892;2022-09-09T14:21:57;99912.00;;;26.40
20103;BMP180;10210;52.284;9.892;2022-09-09T14:24:23;99916.00;;;26.50
20103;BMP180;10210;52.284;9.892;2022-09-09T14:26:49;99908.00;;;26.60
20103;BMP180;10210;52.284;9.892;2022-09-09T14:29:15;99909.00;;;26.70
20103;BMP180;10210;52.284;9.892;2022-09-09T14:31:40;99907.00;;;26.70
20103;BMP180;10210;52.284;9.892;2022-09-09T14:34:06;99906.00;;;26.70
20103;BMP180;10210;52.284;9.892;2022-09-09T14:36:32;99908.00;;;26.80
20103;BMP180;10210;52.284;9.892;2022-09-09T14:38:58;99905.00;;;26.80
20103;BMP180;10210;52.284;9.892;2022-09-09T14:41:24;99908.00;;;26.90
20103;BMP180;10210;52.284;9.892;2022-09-09T14:43:50;99910.00;;;27.00
20103;BMP180;10210;52.284;9.892;2022-09-09T14:46:19;99903.00;;;27.00
20103;BMP180;10210;52.284;9.892;2022-09-09T14:48:45;99906.00;;;27.00
20103;BMP180;10210;52.284;9.892;2022-09-09T14:51:24;99913.00;;;27.10
20103;BMP180;10210;52.284;9.892;2022-09-09T14:53:53;99902.00;;;27.10
20103;BMP180;10210;52.284;9.892;2022-09-09T14:56:21;99904.00;;;27.10
20103;BMP180;10210;52.284;9.892;2022-09-09T14:58:49;99904.00;;;27.10
20103;BMP180;10210;52.284;9.892;2022-09-09T15:01:19;99896.00;;;27.00
20103;BMP180;10210;52.284;9.892;2022-09-09T15:03:55;99908.00;;;27.00
20103;BMP180;10210;52.284;9.892;2022-09-09T15:06:22;99895.00;;;27.10
20103;BMP180;10210;52.284;9.892;2022-09-09T15:08:51;99898.00;;;27.10
20103;BMP180;10210;52.284;9.892;2022-09-09T15:11:18;99903.00;;;27.20
20103;BMP180;10210;52.284;9.892;2022-09-09T15:13:44;99902.00;;;27.20
20103;BMP180;10210;52.284;9.892;2022-09-09T15:16:12;99906.00;;;27.20
20103;BMP180;10210;52.284;9.892;2022-09-09T15:18:38;99911.00;;;27.20
20103;BMP180;10210;52.284;9.892;2022-09-09T15:21:10;99911.00;;;27.20
20103;BMP180;10210;52.284;9.892;2022-09-09T15:23:36;99907.00;;;27.20
20103;BMP180;10210;52.284;9.892;2022-09-09T15:26:04;99908.00;;;27.30
20103;BMP180;10210;52.284;9.892;2022-09-09T15:28:33;99910.00;;;27.30
20103;BMP180;10210;52.284;9.892;2022-09-09T15:31:07;99897.00;;;27.30
20103;BMP180;10210;52.284;9.892;2022-09-09T15:33:35;99901.00;;;27.40
20103;BMP180;10210;52.284;9.892;2022-09-09T15:36:17;99900.00;;;27.30
20103;BMP180;10210;52.284;9.892;2022-09-09T15:38:44;99896.00;;;27.40
20103;BMP180;10210;52.284;9.892;2022-09-09T15:41:12;99896.00;;;27.30
20103;BMP180;10210;52.284;9.892;2022-09-09T15:43:39;99892.00;;;27.30
20103;BMP180;10210;52.284;9.892;2022-09-09T15:48:45;99901.00;;;27.20
20103;BMP180;10210;52.284;9.892;2022-09-09T15:51:11;99901.00;;;27.20
20103;BMP180;10210;52.284;9.892;2022-09-09T15:53:37;99913.00;;;27.10
20103;BMP180;10210;52.284;9.892;2022-09-09T15:56:06;99911.00;;;27.10
20103;BMP180;10210;52.284;9.892;2022-09-09T15:58:33;99909.00;;;27.00
20103;BMP180;10210;52.284;9.892;2022-09-09T16:01:09;99926.00;;;27.00